Time;durP1;ratioP1;P1;durP2;ratioP2;P2;SDS_P1;SDS_P2;PMS_P1;PMS_P2;Temp;Humidity;BMP_temperature;BMP_pressure;BME280_temperature;BME280_humidity;BME280_pressure;Samples;Min_cycle;Max_cycle;Signal;HPM_P1;HPM_P2
2021/04/26 00:01:48;;;;;;;12.68;8.10;;;2.70;99.90;;;;;;5016056;28;20433;-84
2021/04/26 00:04:14;;;;;;;14.23;8.45;;;2.70;99.90;;;;;;5016153;28;20832;-85
2021/04/26 00:06:41;;;;;;;12.63;8.43;;;2.70;99.90;;;;;;5015033;28;20494;-85
2021/04/26 00:09:07;;;;;;;10.32;7.43;;;2.70;99.90;;;;;;5014783;28;20452;-85
2021/04/26 00:11:34;;;;;;;11.53;7.97;;;2.70;99.90;;;;;;5014071;28;20431;-85
2021/04/26 00:14:00;;;;;;;10.82;8.30;;;2.70;99.90;;;;;;5015159;28;20440;-85
2021/04/26 00:16:27;;;;;;;11.70;7.38;;;2.70;99.90;;;;;;5015186;28;20444;-85
2021/04/26 00:18:54;;;;;;;11.93;7.80;;;2.70;99.90;;;;;;5015168;28;20441;-85
2021/04/26 00:21:20;;;;;;;9.85;7.18;;;2.60;99.90;;;;;;5014815;28;20424;-85
2021/04/26 00:23:47;;;;;;;11.07;7.53;;;2.60;99.90;;;;;;5014564;28;20451;-85
2021/04/26 00:26:13;;;;;;;13.15;7.03;;;2.60;99.90;;;;;;5014448;28;20420;-85
2021/04/26 00:28:39;;;;;;;12.70;8.15;;;2.50;99.90;;;;;;5014749;28;20429;-85
2021/04/26 00:31:06;;;;;;;9.02;7.40;;;2.50;99.90;;;;;;5015929;28;20429;-85
2021/04/26 00:33:32;;;;;;;16.40;8.48;;;2.40;99.90;;;;;;5014459;28;20439;-85
2021/04/26 00:35:59;;;;;;;13.05;8.45;;;2.30;99.90;;;;;;5020310;28;20428;-85
2021/04/26 00:38:25;;;;;;;11.30;7.93;;;2.30;99.90;;;;;;5015702;28;20429;-85
2021/04/26 00:40:52;;;;;;;14.63;8.35;;;2.30;99.90;;;;;;5014278;28;20617;-85
2021/04/26 00:43:18;;;;;;;10.50;8.18;;;2.30;99.90;;;;;;5014369;28;20429;-85
2021/04/26 00:45:44;;;;;;;11.60;8.57;;;2.30;99.90;;;;;;5014590;28;20459;-85
2021/04/26 00:48:11;;;;;;;12.35;7.40;;;2.20;99.90;;;;;;5014080;28;20416;-85
2021/04/26 00:50:38;;;;;;;12.25;7.70;;;2.20;99.90;;;;;;5014106;28;20433;-85
2021/04/26 00:53:06;;;;;;;11.52;7.60;;;2.20;99.90;;;;;;5014167;28;20425;-85
2021/04/26 00:55:34;;;;;;;13.00;8.32;;;2.10;99.90;;;;;;5015714;28;20568;-85
2021/04/26 00:58:01;;;;;;;11.68;8.13;;;2.10;99.90;;;;;;5017514;28;20483;-85
2021/04/26 01:00:29;;;;;;;9.55;7.85;;;2.10;99.90;;;;;;5019548;28;20611;-85
2021/04/26 01:02:55;;;;;;;13.93;8.45;;;2.10;99.90;;;;;;5018178;28;20429;-84
2021/04/26 01:05:25;;;;;;;15.48;9.23;;;2.00;99.90;;;;;;5021801;28;20421;-85
2021/04/26 01:07:52;;;;;;;14.63;10.23;;;2.10;99.90;;;;;;5038478;28;20435;-85
2021/04/26 01:10:22;;;;;;;15.98;10.10;;;2.20;99.90;;;;;;5038116;28;20427;-84
2021/04/26 01:13:03;;;;;;;13.30;9.60;;;2.20;99.90;;;;;;5037949;28;20436;-84
2021/04/26 01:15:33;;;;;;;12.90;9.90;;;2.30;99.90;;;;;;5038223;28;20424;-84
2021/04/26 01:18:15;;;;;;;15.13;10.40;;;2.30;99.90;;;;;;5028023;28;20428;-85
2021/04/26 01:21:17;;;;;;;11.82;9.35;;;2.30;99.90;;;;;;5013332;28;20435;-85
2021/04/26 01:24:11;;;;;;;18.33;10.60;;;2.30;99.90;;;;;;5013206;28;20916;-85
2021/04/26 01:26:53;;;;;;;15.02;10.65;;;2.30;99.90;;;;;;5014351;28;21020;-85
2021/04/26 01:29:36;;;;;;;18.15;10.70;;;2.30;99.90;;;;;;5001749;28;20531;-85
2021/04/26 01:32:21;;;;;;;18.60;11.10;;;2.30;99.90;;;;;;5012695;28;20432;-85
2021/04/26 01:34:49;;;;;;;15.00;9.07;;;2.20;99.90;;;;;;5014365;28;20208;-84
2021/04/26 01:37:16;;;;;;;12.00;10.05;;;2.20;99.90;;;;;;5014025;28;20194;-85
2021/04/26 01:39:43;;;;;;;17.05;9.95;;;2.20;99.90;;;;;;5014155;28;20198;-84
2021/04/26 01:42:12;;;;;;;16.48;11.57;;;2.10;99.90;;;;;;5012852;28;20425;-84
2021/04/26 01:44:38;;;;;;;15.85;10.95;;;2.10;99.90;;;;;;5013756;28;20437;-85
2021/04/26 01:47:07;;;;;;;17.17;11.70;;;2.10;99.90;;;;;;5013965;28;20985;-85
2021/04/26 01:49:35;;;;;;;17.23;10.57;;;2.10;99.90;;;;;;5013703;28;20432;-85
2021/04/26 01:52:02;;;;;;;12.40;10.60;;;2.10;99.90;;;;;;5013798;28;20433;-84
2021/04/26 01:54:29;;;;;;;14.27;10.95;;;2.20;99.90;;;;;;5013494;28;20429;-84
2021/04/26 01:56:56;;;;;;;12.68;10.30;;;2.20;99.90;;;;;;5014690;28;20190;-84
2021/04/26 01:59:24;;;;;;;14.20;10.32;;;2.10;99.90;;;;;;5015819;28;20434;-84
2021/04/26 02:01:52;;;;;;;14.32;9.35;;;2.10;99.90;;;;;;5013799;28;20776;-84
2021/04/26 02:04:20;;;;;;;15.15;10.93;;;2.20;99.90;;;;;;5013144;28;20440;-84
2021/04/26 02:06:49;;;;;;;15.95;10.45;;;2.10;99.90;;;;;;5013686;28;20475;-84
2021/04/26 02:09:16;;;;;;;13.73;9.98;;;2.10;99.90;;;;;;5013729;28;20533;-84
2021/04/26 02:11:42;;;;;;;15.07;10.63;;;2.10;99.90;;;;;;5016200;28;20506;-84
2021/04/26 02:14:10;;;;;;;16.70;10.70;;;2.10;99.90;;;;;;5023553;28;20918;-84
2021/04/26 02:16:37;;;;;;;12.20;10.35;;;2.10;99.90;;;;;;5032586;28;20912;-84
2021/04/26 02:19:03;;;;;;;14.20;10.60;;;2.00;99.90;;;;;;5013732;28;20421;-84
2021/04/26 02:21:30;;;;;;;12.20;10.00;;;1.90;99.90;;;;;;4995353;28;20755;-84
2021/04/26 02:23:57;;;;;;;17.33;10.88;;;1.80;99.90;;;;;;5011801;28;20429;-85
2021/04/26 02:26:23;;;;;;;15.32;11.00;;;1.80;99.90;;;;;;5012555;28;20955;-84
2021/04/26 02:28:49;;;;;;;15.07;11.00;;;1.70;99.90;;;;;;5014861;28;20431;-84
2021/04/26 02:31:19;;;;;;;16.05;11.15;;;1.70;99.90;;;;;;5017081;28;20437;-85
2021/04/26 02:33:53;;;;;;;17.27;11.32;;;1.60;99.90;;;;;;5018187;28;20497;-84
2021/04/26 02:36:25;;;;;;;14.18;10.40;;;1.60;99.90;;;;;;5016811;28;20455;-84
2021/04/26 02:38:53;;;;;;;13.57;10.73;;;1.50;99.90;;;;;;5017454;28;20485;-85
2021/04/26 02:41:28;;;;;;;17.10;11.25;;;1.40;99.90;;;;;;5018647;28;20485;-84
2021/04/26 02:43:59;;;;;;;13.32;11.55;;;1.40;99.90;;;;;;5021931;28;20436;-84
2021/04/26 02:46:27;;;;;;;14.13;11.07;;;1.30;99.90;;;;;;5019730;28;20483;-84
2021/04/26 02:48:56;;;;;;;13.60;10.95;;;1.30;99.90;;;;;;5016408;28;20425;-84
2021/04/26 02:51:23;;;;;;;13.70;10.55;;;1.20;99.90;;;;;;5016311;28;20471;-84
2021/04/26 02:53:52;;;;;;;13.85;10.52;;;1.20;99.90;;;;;;5016455;28;20420;-84
2021/04/26 02:56:19;;;;;;;14.13;10.73;;;1.20;99.90;;;;;;5018359;28;20440;-84
2021/04/26 02:58:51;;;;;;;16.33;10.90;;;1.20;99.90;;;;;;5017612;28;20448;-85
2021/04/26 03:01:18;;;;;;;10.80;9.57;;;1.20;99.90;;;;;;5018813;28;20445;-85
2021/04/26 03:03:45;;;;;;;12.98;10.73;;;1.10;99.90;;;;;;5018375;28;20191;-85
2021/04/26 03:06:12;;;;;;;16.73;10.50;;;1.10;99.90;;;;;;5018475;28;20270;-85
2021/04/26 03:08:40;;;;;;;11.48;9.80;;;1.10;99.90;;;;;;5020016;28;20194;-85
2021/04/26 03:11:08;;;;;;;16.02;10.93;;;1.00;99.90;;;;;;5024891;28;20183;-85
2021/04/26 03:13:36;;;;;;;11.80;10.60;;;0.90;99.90;;;;;;5017561;28;20189;-84
2021/04/26 03:16:04;;;;;;;17.85;10.73;;;0.90;99.90;;;;;;5017408;28;20184;-84
2021/04/26 03:18:31;;;;;;;12.90;10.23;;;0.90;99.90;;;;;;5017606;28;20638;-85
2021/04/26 03:20:57;;;;;;;11.65;10.45;;;0.80;99.90;;;;;;5017917;28;20237;-85
2021/04/26 03:23:26;;;;;;;17.63;11.68;;;0.80;99.90;;;;;;5017742;28;20187;-84
2021/04/26 03:25:57;;;;;;;18.75;11.38;;;0.70;99.90;;;;;;5017420;28;20226;-84
2021/04/26 03:28:24;;;;;;;18.00;10.70;;;0.60;99.90;;;;;;5017558;28;20195;-85
2021/04/26 03:30:51;;;;;;;16.23;10.65;;;0.60;99.90;;;;;;5016814;28;20181;-84
2021/04/26 03:33:18;;;;;;;11.93;9.73;;;0.50;99.90;;;;;;5017376;28;20190;-84
2021/04/26 03:35:46;;;;;;;14.68;10.40;;;0.40;99.90;;;;;;5017125;28;20194;-85
2021/04/26 03:38:12;;;;;;;11.85;10.10;;;0.40;99.90;;;;;;5017309;28;20553;-85
2021/04/26 03:40:39;;;;;;;13.10;11.30;;;0.20;99.90;;;;;;5016025;28;20450;-85
2021/04/26 03:43:06;;;;;;;16.50;12.50;;;0.20;99.90;;;;;;5023392;28;20420;-90
2021/04/26 03:45:32;;;;;;;14.77;11.52;;;0.30;99.90;;;;;;5018738;28;20436;-89
2021/04/26 03:47:59;;;;;;;15.30;11.03;;;0.40;99.90;;;;;;5018083;28;20935;-89
2021/04/26 03:50:27;;;;;;;15.98;12.07;;;0.40;99.90;;;;;;5018050;28;20440;-90
2021/04/26 03:52:54;;;;;;;12.15;10.57;;;0.40;99.90;;;;;;5017438;28;20451;-90
2021/04/26 03:55:23;;;;;;;13.60;10.93;;;0.40;99.90;;;;;;5017224;28;20943;-89
2021/04/26 03:57:50;;;;;;;17.27;12.57;;;0.50;99.90;;;;;;5017617;28;20439;-89
2021/04/26 04:00:18;;;;;;;15.93;11.65;;;0.50;99.90;;;;;;5017030;28;20428;-89
2021/04/26 04:02:46;;;;;;;15.85;11.63;;;0.50;99.90;;;;;;5017274;28;20524;-89
2021/04/26 04:05:14;;;;;;;15.57;11.88;;;0.50;99.90;;;;;;5017475;28;20452;-89
2021/04/26 04:07:41;;;;;;;17.92;11.60;;;0.60;99.90;;;;;;5016742;28;20431;-89
2021/04/26 04:10:10;;;;;;;16.02;11.77;;;0.50;99.90;;;;;;5017410;28;20429;-89
2021/04/26 04:12:37;;;;;;;14.02;11.50;;;0.60;99.90;;;;;;5017082;28;20452;-90
2021/04/26 04:15:05;;;;;;;12.02;10.68;;;0.50;99.90;;;;;;5016606;28;20437;-88
2021/04/26 04:17:31;;;;;;;14.10;11.63;;;0.50;99.90;;;;;;5020257;28;20425;-89
2021/04/26 04:19:58;;;;;;;13.68;11.30;;;0.50;99.90;;;;;;5026042;28;20452;-89
2021/04/26 04:22:24;;;;;;;13.73;10.68;;;0.50;99.90;;;;;;5051304;28;20442;-89
2021/04/26 04:24:51;;;;;;;14.75;11.65;;;0.50;99.90;;;;;;5030333;28;20437;-89
2021/04/26 04:27:18;;;;;;;15.52;12.02;;;0.50;99.90;;;;;;5018871;28;20427;-89
2021/04/26 04:29:44;;;;;;;16.95;13.40;;;0.60;99.90;;;;;;5031561;28;20444;-88
2021/04/26 04:32:12;;;;;;;12.55;11.15;;;0.60;99.90;;;;;;5018186;28;20421;-88
2021/04/26 04:34:38;;;;;;;16.42;12.10;;;0.60;99.90;;;;;;5037253;28;20435;-87
2021/04/26 04:37:05;;;;;;;16.15;11.90;;;0.60;99.90;;;;;;5037673;28;20409;-88
2021/04/26 04:39:31;;;;;;;14.57;11.50;;;0.70;99.90;;;;;;5034356;28;20447;-89
2021/04/26 04:41:59;;;;;;;14.60;12.02;;;0.70;99.90;;;;;;5027177;28;20928;-90
2021/04/26 04:44:25;;;;;;;17.23;12.50;;;0.70;99.90;;;;;;5021757;28;20436;-90
2021/04/26 04:46:52;;;;;;;16.80;12.40;;;0.70;99.90;;;;;;5015767;28;20417;-88
2021/04/26 04:49:18;;;;;;;16.50;12.63;;;0.60;99.90;;;;;;5031752;28;20461;-88
2021/04/26 04:51:45;;;;;;;14.20;11.45;;;0.70;99.90;;;;;;5015371;28;20483;-89
2021/04/26 04:54:11;;;;;;;15.98;13.38;;;0.70;99.90;;;;;;5015920;28;20436;-90
2021/04/26 04:56:39;;;;;;;17.55;12.88;;;0.80;99.90;;;;;;5032516;28;20429;-92
2021/04/26 04:59:06;;;;;;;13.60;11.65;;;0.80;99.90;;;;;;5017455;28;20432;-93
2021/04/26 05:01:33;;;;;;;17.85;12.18;;;0.90;99.90;;;;;;5017520;28;20492;-92
2021/04/26 05:04:00;;;;;;;16.05;11.85;;;1.00;99.90;;;;;;5016808;28;20435;-92
2021/04/26 05:06:26;;;;;;;14.97;12.97;;;1.00;99.90;;;;;;5017250;28;20425;-91
2021/04/26 05:08:53;;;;;;;17.17;12.00;;;1.10;99.90;;;;;;5016415;28;20463;-92
2021/04/26 05:11:19;;;;;;;19.27;12.50;;;1.20;99.90;;;;;;5016353;28;20432;-91
2021/04/26 05:13:46;;;;;;;16.95;12.60;;;1.30;99.90;;;;;;5008490;28;20422;-91
2021/04/26 05:16:14;;;;;;;14.23;12.38;;;1.40;99.90;;;;;;4996726;28;20810;-92
2021/04/26 05:18:41;;;;;;;15.68;13.73;;;1.60;99.90;;;;;;5012866;28;20421;-92
2021/04/26 05:21:07;;;;;;;21.60;14.18;;;1.60;99.90;;;;;;5017729;28;20544;-91
2021/04/26 05:23:34;;;;;;;18.75;13.43;;;1.70;99.90;;;;;;5016489;28;20439;-92
2021/04/26 05:26:02;;;;;;;15.25;12.60;;;1.80;99.90;;;;;;5016702;28;20445;-91
2021/04/26 05:28:28;;;;;;;16.02;13.60;;;1.90;99.90;;;;;;5016670;28;20998;-88
2021/04/26 05:30:55;;;;;;;16.43;12.83;;;2.00;99.90;;;;;;5017205;28;20421;-92
2021/04/26 05:33:23;;;;;;;19.47;12.80;;;2.20;99.90;;;;;;5017732;28;20421;-91
2021/04/26 05:35:49;;;;;;;18.77;14.40;;;2.20;99.90;;;;;;5016700;28;20452;-92
2021/04/26 05:38:18;;;;;;;16.50;12.75;;;2.30;99.90;;;;;;5016343;28;20431;-92
2021/04/26 05:40:47;;;;;;;17.67;13.45;;;2.50;99.90;;;;;;5017891;28;20435;-89
2021/04/26 05:43:15;;;;;;;20.55;13.15;;;2.60;99.90;;;;;;5030311;28;20785;-91
2021/04/26 05:45:42;;;;;;;16.60;12.50;;;2.70;99.90;;;;;;5025216;28;20549;-93
2021/04/26 05:48:13;;;;;;;18.65;13.55;;;2.80;99.90;;;;;;5034490;28;20448;-94
2021/04/26 05:50:42;;;;;;;13.70;12.02;;;2.90;99.90;;;;;;5031038;28;20459;-92
2021/04/26 05:53:09;;;;;;;16.73;12.10;;;2.90;99.90;;;;;;5028856;28;20424;-93
2021/04/26 05:55:37;;;;;;;15.83;13.10;;;3.10;99.90;;;;;;5029614;28;20460;-94
2021/04/26 05:58:04;;;;;;;14.88;12.27;;;3.20;99.90;;;;;;5031509;28;20551;-93
2021/04/26 06:00:31;;;;;;;18.45;12.23;;;3.30;99.90;;;;;;5235578;23;20598;-89
2021/04/26 06:02:58;;;;;;;18.83;12.80;;;3.40;99.90;;;;;;5015957;28;20559;-89
2021/04/26 06:05:33;;;;;;;17.08;12.57;;;3.50;99.90;;;;;;5014818;28;20941;-93
2021/04/26 06:08:01;;;;;;;17.77;11.13;;;3.60;99.90;;;;;;4996413;28;20426;-91
2021/04/26 06:10:28;;;;;;;13.88;12.02;;;3.80;99.90;;;;;;4995716;28;20432;-90
2021/04/26 06:12:55;;;;;;;14.70;11.90;;;3.80;99.90;;;;;;5025312;28;20493;-91
2021/04/26 06:15:25;;;;;;;15.63;12.23;;;4.00;99.90;;;;;;5022033;28;20417;-89
2021/04/26 06:17:51;;;;;;;14.18;11.23;;;4.10;99.90;;;;;;5016046;28;20463;-89
2021/04/26 06:20:20;;;;;;;17.50;11.48;;;4.20;99.90;;;;;;5018255;28;20517;-92
2021/04/26 06:22:46;;;;;;;15.07;12.13;;;4.40;99.90;;;;;;5017149;28;20424;-90
2021/04/26 06:25:14;;;;;;;12.35;10.82;;;4.50;99.90;;;;;;5015963;28;20436;-89
2021/04/26 06:27:40;;;;;;;17.70;13.00;;;4.60;99.90;;;;;;5016288;28;20511;-90
2021/04/26 06:30:08;;;;;;;15.98;11.57;;;4.60;99.90;;;;;;5014886;28;20434;-89
2021/04/26 06:32:34;;;;;;;17.85;12.50;;;4.70;99.90;;;;;;5015664;28;20444;-90
2021/04/26 06:35:01;;;;;;;14.30;11.63;;;4.80;99.90;;;;;;5016285;28;20508;-90
2021/04/26 06:37:30;;;;;;;16.70;11.77;;;4.90;99.90;;;;;;5016612;28;20424;-90
2021/04/26 06:40:00;;;;;;;20.05;11.93;;;5.00;99.90;;;;;;5016107;28;20837;-90
2021/04/26 06:42:37;;;;;;;14.18;10.63;;;5.20;99.90;;;;;;5017539;28;20420;-90
2021/04/26 06:45:05;;;;;;;14.02;10.20;;;5.30;99.90;;;;;;5019538;28;20440;-90
2021/04/26 06:47:31;;;;;;;16.75;10.80;;;5.40;99.90;;;;;;5017718;28;20432;-90
2021/04/26 06:49:58;;;;;;;16.58;10.90;;;5.50;99.90;;;;;;5017494;28;20448;-88
2021/04/26 06:52:25;;;;;;;15.90;10.25;;;5.70;99.90;;;;;;5016079;28;20431;-89
2021/04/26 06:54:51;;;;;;;15.35;10.43;;;5.90;99.90;;;;;;5018128;28;20440;-89
2021/04/26 06:57:20;;;;;;;13.32;9.98;;;5.90;99.90;;;;;;5015532;28;20416;-91
2021/04/26 06:59:48;;;;;;;13.45;9.55;;;6.10;99.90;;;;;;5016639;28;20443;-91
2021/04/26 07:02:14;;;;;;;11.68;9.50;;;6.20;99.90;;;;;;5013896;28;20424;-90
2021/04/26 07:04:41;;;;;;;12.55;9.80;;;6.30;99.90;;;;;;5014954;28;20912;-89
2021/04/26 07:07:08;;;;;;;20.02;10.00;;;6.50;99.90;;;;;;5014805;28;20431;-90
2021/04/26 07:09:34;;;;;;;14.13;9.27;;;6.60;99.90;;;;;;5015171;28;20483;-89
2021/04/26 07:12:01;;;;;;;12.17;8.30;;;6.60;99.90;;;;;;5015371;28;20421;-91
2021/04/26 07:14:29;;;;;;;11.48;8.27;;;6.80;99.90;;;;;;5015764;28;20428;-91
2021/04/26 07:16:56;;;;;;;12.60;8.05;;;6.90;99.90;;;;;;5018744;28;20532;-91
2021/04/26 07:19:23;;;;;;;10.80;7.13;;;7.00;99.90;;;;;;5017712;28;20408;-90
2021/04/26 07:21:50;;;;;;;9.70;6.43;;;7.20;99.90;;;;;;5017432;28;20954;-87
2021/04/26 07:24:19;;;;;;;9.95;7.00;;;7.30;99.90;;;;;;5014088;28;20429;-95
2021/04/26 07:26:45;;;;;;;9.52;6.63;;;7.40;99.90;;;;;;5012381;28;20499;-89
2021/04/26 07:29:12;;;;;;;7.75;5.20;;;7.60;99.90;;;;;;5016149;28;20420;-90
2021/04/26 07:31:39;;;;;;;7.70;4.80;;;8.00;99.90;;;;;;5012521;28;20519;-90
2021/04/26 07:34:06;;;;;;;7.40;4.50;;;7.90;99.90;;;;;;5018721;28;20496;-91
2021/04/26 07:36:32;;;;;;;10.27;5.28;;;8.10;99.90;;;;;;5016716;28;20429;-89
2021/04/26 07:38:59;;;;;;;6.53;5.00;;;8.20;99.90;;;;;;5016451;28;21005;-92
2021/04/26 07:41:25;;;;;;;5.80;3.50;;;8.40;99.90;;;;;;5010471;28;20437;-89
2021/04/26 07:43:52;;;;;;;6.23;3.20;;;8.50;99.90;;;;;;5016575;28;20420;-90
2021/04/26 07:46:19;;;;;;;5.65;3.13;;;8.60;99.90;;;;;;5010246;28;20422;-91
2021/04/26 07:48:46;;;;;;;5.57;3.40;;;8.60;99.90;;;;;;5001758;28;20506;-89
2021/04/26 07:51:13;;;;;;;8.70;3.72;;;8.70;99.90;;;;;;5017186;28;20420;-89
2021/04/26 07:53:40;;;;;;;6.57;3.33;;;8.70;99.90;;;;;;5021512;28;20456;-90
2021/04/26 07:56:06;;;;;;;6.22;3.38;;;8.90;99.90;;;;;;5019013;28;20508;-91
2021/04/26 07:58:33;;;;;;;4.90;3.25;;;8.90;99.90;;;;;;5018562;28;20421;-91
2021/04/26 08:01:00;;;;;;;7.43;3.00;;;9.10;99.90;;;;;;5017661;28;20425;-90
2021/04/26 08:03:27;;;;;;;5.75;3.10;;;9.10;99.90;;;;;;5019410;28;20413;-90
2021/04/26 08:05:54;;;;;;;4.60;2.80;;;9.20;99.90;;;;;;5017396;28;20447;-90
2021/04/26 08:08:22;;;;;;;5.55;3.00;;;9.30;99.90;;;;;;5016686;28;20450;-90
2021/04/26 08:10:49;;;;;;;5.50;2.75;;;9.30;99.90;;;;;;5023024;28;20429;-89
2021/04/26 08:13:15;;;;;;;3.92;2.50;;;9.70;99.90;;;;;;5029662;28;20432;-88
2021/04/26 08:15:42;;;;;;;4.25;2.70;;;9.50;99.90;;;;;;5025342;28;20823;-89
2021/04/26 08:18:08;;;;;;;4.00;2.70;;;9.70;99.90;;;;;;5017089;28;20446;-90
2021/04/26 08:20:35;;;;;;;4.85;2.70;;;9.70;99.90;;;;;;5015687;28;20922;-89
2021/04/26 08:23:03;;;;;;;6.00;2.92;;;9.80;99.90;;;;;;5015137;28;20505;-88
2021/04/26 08:25:30;;;;;;;5.10;3.20;;;9.80;99.90;;;;;;5014850;28;21045;-89
2021/04/26 08:27:57;;;;;;;3.90;2.63;;;9.90;99.90;;;;;;5016828;28;20424;-89
2021/04/26 08:30:24;;;;;;;3.75;2.17;;;10.00;99.90;;;;;;5016408;28;20428;-89
2021/04/26 08:32:51;;;;;;;4.22;2.80;;;10.10;99.90;;;;;;5015197;28;20420;-89
2021/04/26 08:35:18;;;;;;;4.45;2.42;;;10.20;99.90;;;;;;5014736;28;20417;-89
2021/04/26 08:37:44;;;;;;;4.50;2.58;;;10.40;99.90;;;;;;5014751;28;20429;-89
2021/04/26 08:40:11;;;;;;;7.00;3.17;;;10.30;99.90;;;;;;5015086;28;20904;-89
2021/04/26 08:42:39;;;;;;;5.40;2.70;;;10.50;99.90;;;;;;5015071;28;20432;-88
2021/04/26 08:45:07;;;;;;;5.30;3.10;;;10.40;99.90;;;;;;5014828;28;20443;-89
2021/04/26 08:47:37;;;;;;;4.30;2.60;;;10.50;99.90;;;;;;5014524;28;20431;-89
2021/04/26 08:50:05;;;;;;;4.72;2.70;;;10.70;99.90;;;;;;5016638;28;20424;-90
2021/04/26 08:52:31;;;;;;;4.60;2.60;;;10.80;99.90;;;;;;5014161;28;20428;-89
2021/04/26 08:54:58;;;;;;;4.20;2.70;;;10.90;99.90;;;;;;5014391;28;20417;-89
2021/04/26 08:57:24;;;;;;;5.47;3.35;;;10.80;99.90;;;;;;5014448;28;20437;-88
2021/04/26 08:59:54;;;;;;;6.28;3.10;;;10.90;99.90;;;;;;5014520;28;20420;-88
2021/04/26 09:02:20;;;;;;;6.30;3.10;;;10.90;99.90;;;;;;5014576;28;20883;-89
2021/04/26 09:04:51;;;;;;;5.47;3.50;;;11.00;99.90;;;;;;5015228;28;20437;-90
2021/04/26 09:07:18;;;;;;;4.10;3.08;;;11.00;99.90;;;;;;5016180;28;20427;-90
2021/04/26 09:09:47;;;;;;;5.10;2.80;;;11.00;99.90;;;;;;5021690;28;20856;-88
2021/04/26 09:12:15;;;;;;;4.30;2.50;;;11.00;99.90;;;;;;5016872;28;20916;-89
2021/04/26 09:14:44;;;;;;;5.53;2.60;;;10.90;99.90;;;;;;5015707;28;20433;-90
2021/04/26 09:17:32;;;;;;;4.43;2.60;;;11.10;99.90;;;;;;5014947;28;20492;-89
2021/04/26 09:20:14;;;;;;;6.30;3.00;;;11.40;99.90;;;;;;5015050;28;20452;-90
2021/04/26 09:22:44;;;;;;;5.32;2.90;;;11.70;99.90;;;;;;5006020;28;20424;-88
2021/04/26 09:25:31;;;;;;;5.10;2.90;;;11.80;99.90;;;;;;5014257;28;20843;-89
2021/04/26 09:28:01;;;;;;;5.80;2.60;;;12.00;99.90;;;;;;5004890;28;20456;-87
2021/04/26 09:30:45;;;;;;;4.30;3.30;;;12.00;99.90;;;;;;5012211;28;20439;-89
2021/04/26 09:33:30;;;;;;;5.90;2.92;;;11.80;99.90;;;;;;5016465;28;20424;-89
2021/04/26 09:36:14;;;;;;;4.90;3.00;;;12.10;99.90;;;;;;5015619;28;20428;-89
2021/04/26 09:38:43;;;;;;;4.80;3.20;;;11.90;99.90;;;;;;5014686;28;20556;-88
2021/04/26 09:41:18;;;;;;;7.07;3.30;;;11.80;99.90;;;;;;4996010;28;20422;-88
2021/04/26 09:43:46;;;;;;;5.53;3.33;;;11.80;99.80;;;;;;5010271;28;20920;-88
2021/04/26 09:46:14;;;;;;;6.20;3.75;;;11.60;99.20;;;;;;5014993;28;20916;-89
2021/04/26 09:48:41;;;;;;;6.30;3.58;;;11.60;99.40;;;;;;5014026;28;20435;-89
2021/04/26 09:51:09;;;;;;;4.63;3.30;;;11.80;99.90;;;;;;5005216;28;20430;-90
2021/04/26 09:53:46;;;;;;;6.30;3.80;;;12.00;99.90;;;;;;4996170;28;20677;-88
2021/04/26 09:56:15;;;;;;;5.00;3.17;;;12.20;99.90;;;;;;5011664;28;20773;-89
2021/04/26 09:58:42;;;;;;;5.40;3.70;;;12.20;99.90;;;;;;5011989;28;20421;-91
2021/04/26 10:01:09;;;;;;;6.50;3.70;;;12.20;99.80;;;;;;5008350;28;20432;-90
2021/04/26 10:03:36;;;;;;;4.43;3.15;;;12.10;99.40;;;;;;5010292;28;20420;-91
2021/04/26 10:06:04;;;;;;;7.20;3.30;;;12.20;98.80;;;;;;4999004;28;20425;-89
2021/04/26 10:08:31;;;;;;;5.68;3.80;;;12.20;99.90;;;;;;5007647;28;20455;-89
2021/04/26 10:10:58;;;;;;;6.25;3.60;;;12.40;99.90;;;;;;5011753;28;20424;-89
2021/04/26 10:13:26;;;;;;;6.63;3.40;;;12.60;99.40;;;;;;5012959;28;20457;-88
2021/04/26 10:15:58;;;;;;;5.40;3.53;;;12.40;97.90;;;;;;5012109;28;20424;-88
2021/04/26 10:18:36;;;;;;;4.13;3.03;;;12.50;98.80;;;;;;5012922;28;20421;-87
2021/04/26 10:21:05;;;;;;;6.05;3.70;;;12.60;98.80;;;;;;5015017;28;20428;-88
2021/04/26 10:23:40;;;;;;;4.70;3.28;;;12.70;99.40;;;;;;5013524;28;20421;-89
2021/04/26 10:26:07;;;;;;;5.15;2.95;;;12.80;98.90;;;;;;5012632;28;20476;-88
2021/04/26 10:28:35;;;;;;;5.70;3.20;;;12.90;99.30;;;;;;5011714;28;20428;-88
2021/04/26 10:31:06;;;;;;;5.03;3.50;;;13.10;99.00;;;;;;5012839;28;20431;-88
2021/04/26 10:34:07;;;;;;;7.18;3.42;;;13.10;96.70;;;;;;5013027;28;20986;-88
2021/04/26 10:36:45;;;;;;;4.22;3.13;;;13.00;98.20;;;;;;5014078;28;20523;-88
2021/04/26 10:39:14;;;;;;;5.90;3.35;;;13.20;97.90;;;;;;5013338;28;20424;-89
2021/04/26 10:42:06;;;;;;;6.43;3.47;;;13.20;97.70;;;;;;5012980;28;20468;-88
2021/04/26 10:44:55;;;;;;;5.75;3.88;;;13.30;99.00;;;;;;5013531;28;20437;-90
2021/04/26 10:47:36;;;;;;;5.72;3.63;;;13.50;99.40;;;;;;5013147;28;20467;-86
2021/04/26 10:50:28;;;;;;;6.63;3.72;;;13.50;95.80;;;;;;5015222;28;20611;-89
2021/04/26 10:52:56;;;;;;;5.70;3.58;;;13.40;95.90;;;;;;5016910;28;20454;-89
2021/04/26 10:56:01;;;;;;;6.82;4.20;;;13.50;96.80;;;;;;5022152;28;20417;-89
2021/04/26 10:58:39;;;;;;;4.90;3.33;;;13.70;95.70;;;;;;5019628;28;20456;-88
2021/04/26 11:01:07;;;;;;;7.27;4.00;;;13.80;94.70;;;;;;5025145;28;20424;-88
2021/04/26 11:03:40;;;;;;;4.95;3.55;;;13.80;94.20;;;;;;5033324;28;20529;-88
2021/04/26 11:06:29;;;;;;;6.13;3.57;;;13.90;94.10;;;;;;5038871;28;20412;-87
2021/04/26 11:09:19;;;;;;;7.18;3.70;;;14.00;95.80;;;;;;5030623;28;20420;-89
2021/04/26 11:11:55;;;;;;;6.55;3.80;;;14.10;94.80;;;;;;5051214;28;20431;-89
2021/04/26 11:14:24;;;;;;;7.30;4.15;;;14.00;93.70;;;;;;5048284;28;20423;-89
2021/04/26 11:17:02;;;;;;;8.65;3.55;;;14.00;94.40;;;;;;5051606;28;20486;-90
2021/04/26 11:19:28;;;;;;;5.97;4.10;;;14.10;94.80;;;;;;5034042;28;20416;-88
2021/04/26 11:22:00;;;;;;;5.70;3.60;;;14.30;95.80;;;;;;5032401;28;20512;-88
2021/04/26 11:24:52;;;;;;;8.40;4.60;;;14.50;94.60;;;;;;5018647;28;20426;-87
2021/04/26 11:27:25;;;;;;;6.78;4.15;;;14.30;92.90;;;;;;5035015;28;20424;-89
2021/04/26 11:30:15;;;;;;;5.43;3.85;;;14.10;91.80;;;;;;5050824;28;20403;-88
2021/04/26 11:33:17;;;;;;;5.55;3.60;;;14.10;93.10;;;;;;5039982;28;20478;-89
2021/04/26 11:36:20;;;;;;;8.30;4.50;;;14.70;93.50;;;;;;5050660;28;20413;-90
2021/04/26 11:38:48;;;;;;;4.80;3.95;;;15.60;94.00;;;;;;5039637;28;20437;-90
2021/04/26 11:41:17;;;;;;;5.97;4.35;;;16.70;93.40;;;;;;5039057;28;20512;-88
2021/04/26 11:43:45;;;;;;;7.00;4.80;;;17.40;92.90;;;;;;5039365;28;20424;-87
2021/04/26 11:46:11;;;;;;;6.13;4.68;;;17.70;85.60;;;;;;5039250;28;20456;-88
2021/04/26 11:48:38;;;;;;;6.30;3.70;;;18.00;85.30;;;;;;5036258;28;20496;-87
2021/04/26 11:51:05;;;;;;;5.85;4.20;;;18.70;85.50;;;;;;5035713;28;20520;-88
2021/04/26 11:53:33;;;;;;;6.00;4.13;;;18.50;75.80;;;;;;5034038;28;20420;-88
2021/04/26 11:56:11;;;;;;;6.20;3.70;;;18.50;75.20;;;;;;5032511;28;20463;-89
2021/04/26 11:58:39;;;;;;;6.60;4.78;;;19.30;72.70;;;;;;5032726;28;20436;-90
2021/04/26 12:01:07;;;;;;;6.17;3.90;;;19.70;69.50;;;;;;5034912;28;20445;-94
2021/04/26 12:03:50;;;;;;;4.50;3.70;;;20.00;68.70;;;;;;5034835;28;20468;-89
2021/04/26 12:06:18;;;;;;;5.13;4.00;;;20.10;63.40;;;;;;5031346;28;20227;-90
2021/04/26 12:08:45;;;;;;;5.85;3.38;;;20.30;63.80;;;;;;5028340;28;20677;-90
2021/04/26 12:11:16;;;;;;;5.50;3.08;;;21.10;62.30;;;;;;5024966;28;20280;-91
2021/04/26 12:13:44;;;;;;;8.13;4.13;;;20.80;57.90;;;;;;5024783;28;20197;-90
2021/04/26 12:16:24;;;;;;;6.18;4.10;;;20.50;60.00;;;;;;5023815;28;20421;-91
2021/04/26 12:18:57;;;;;;;5.07;3.70;;;20.70;59.30;;;;;;5024991;28;20185;-91
2021/04/26 12:21:24;;;;;;;6.22;3.90;;;20.70;57.00;;;;;;5029539;28;20197;-90
2021/04/26 12:23:50;;;;;;;4.85;3.85;;;20.90;57.80;;;;;;5028483;28;20215;-90
2021/04/26 12:26:17;;;;;;;6.35;3.65;;;21.10;56.80;;;;;;5020763;28;20221;-90
2021/04/26 12:28:46;;;;;;;5.47;3.67;;;21.30;56.30;;;;;;5015673;28;20182;-88
2021/04/26 12:31:19;;;;;;;7.75;3.67;;;21.90;58.10;;;;;;5016000;28;20263;-88
2021/04/26 12:33:46;;;;;;;5.78;4.00;;;22.10;54.00;;;;;;5016250;28;20200;-89
2021/04/26 12:36:12;;;;;;;7.72;4.18;;;22.00;50.70;;;;;;5015706;28;20221;-88
2021/04/26 12:38:39;;;;;;;7.38;4.22;;;22.40;52.80;;;;;;5016055;28;20675;-90
2021/04/26 12:41:12;;;;;;;4.55;4.05;;;21.90;48.60;;;;;;5019653;28;20193;-90
2021/04/26 12:43:41;;;;;;;4.82;4.15;;;21.70;52.70;;;;;;5016395;28;20193;-90
2021/04/26 12:46:10;;;;;;;4.82;3.70;;;22.00;50.90;;;;;;5016967;28;20259;-89
2021/04/26 12:48:38;;;;;;;5.55;3.83;;;22.70;50.80;;;;;;5015393;28;20185;-90
2021/04/26 12:51:06;;;;;;;8.35;3.53;;;23.00;48.70;;;;;;5015409;28;20192;-90
2021/04/26 12:53:33;;;;;;;5.15;4.10;;;23.00;46.60;;;;;;5015598;28;20216;-90
2021/04/26 12:56:14;;;;;;;5.97;3.80;;;23.20;48.40;;;;;;5015418;28;20213;-90